createdAt,value
2017-09-04T00:00:56.060Z,7.60
2017-09-04T00:03:23.688Z,9.70
2017-09-04T00:05:54.896Z,10.70
2017-09-04T00:08:24.696Z,8.43
2017-09-04T00:10:52.474Z,8.67
2017-09-04T00:13:20.642Z,13.57
2017-09-04T00:21:49.977Z,13.23
2017-09-04T00:24:28.178Z,8.80
2017-09-04T00:27:42.993Z,9.17
2017-09-04T00:30:55.237Z,10.93
2017-09-04T00:36:51.069Z,12.03
2017-09-04T00:39:24.635Z,8.47
2017-09-04T00:41:58.562Z,7.60
2017-09-04T00:44:37.882Z,7.97
2017-09-04T00:47:17.117Z,7.33
2017-09-04T00:52:27.921Z,6.77
2017-09-04T00:54:57.702Z,8.17
2017-09-04T00:57:25.277Z,6.97
2017-09-04T00:59:55.771Z,7.70
2017-09-04T01:02:25.183Z,8.23
2017-09-04T01:04:52.782Z,8.87
2017-09-04T01:07:21.256Z,6.43
2017-09-04T01:09:48.902Z,6.20
2017-09-04T01:12:16.597Z,6.60
2017-09-04T01:14:44.266Z,5.97
2017-09-04T01:17:11.882Z,7.17
2017-09-04T01:19:39.561Z,6.57
2017-09-04T01:22:08.270Z,5.70
2017-09-04T01:24:36.594Z,5.77
2017-09-04T01:27:04.178Z,5.93
2017-09-04T01:29:32.548Z,7.10
2017-09-04T01:32:00.197Z,5.83
2017-09-04T01:34:28.771Z,5.53
2017-09-04T01:36:56.340Z,5.53
2017-09-04T01:39:31.150Z,5.33
2017-09-04T01:42:00.283Z,4.60
2017-09-04T01:44:31.614Z,5.13
2017-09-04T01:47:01.372Z,5.47
2017-09-04T01:49:30.119Z,4.80
2017-09-04T01:51:59.538Z,4.37
2017-09-04T01:54:30.052Z,5.00
2017-09-04T01:57:01.725Z,4.90
2017-09-04T01:59:31.502Z,5.23
2017-09-04T02:01:59.432Z,5.13
2017-09-04T02:04:27.534Z,4.43
2017-09-04T02:06:56.107Z,5.73
2017-09-04T02:09:37.064Z,4.77
2017-09-04T02:12:04.733Z,4.27
2017-09-04T02:14:32.428Z,4.40
2017-09-04T02:17:02.062Z,4.00
2017-09-04T02:19:29.764Z,4.53
2017-09-04T02:21:57.460Z,4.40
2017-09-04T02:24:25.110Z,4.67
2017-09-04T02:26:52.684Z,5.00
2017-09-04T02:29:20.286Z,5.00
2017-09-04T02:31:47.956Z,4.33
2017-09-04T02:34:15.561Z,4.50
2017-09-04T02:36:43.232Z,4.83
2017-09-04T02:39:10.970Z,4.50
2017-09-04T02:41:38.755Z,4.77
2017-09-04T02:44:08.384Z,4.90
2017-09-04T02:46:38.274Z,4.77
2017-09-04T02:56:00.801Z,4.47
2017-09-04T02:58:38.141Z,6.00
2017-09-04T03:04:00.160Z,4.40
2017-09-04T03:06:28.733Z,5.20
2017-09-04T03:08:57.004Z,4.40
2017-09-04T03:11:28.383Z,10.23
2017-09-04T03:14:00.131Z,4.50
2017-09-04T03:16:29.069Z,4.90
2017-09-04T03:27:42.646Z,4.67
2017-09-04T03:30:11.742Z,4.80
2017-09-04T03:32:41.192Z,5.03
2017-09-04T03:35:08.930Z,4.77
2017-09-04T03:37:38.281Z,4.03
2017-09-04T03:40:08.096Z,5.00
2017-09-04T03:42:35.787Z,4.80
2017-09-04T03:45:03.476Z,5.53
2017-09-04T03:47:31.224Z,4.90
2017-09-04T03:49:59.519Z,4.30
2017-09-04T03:52:27.824Z,4.67
2017-09-04T03:54:55.535Z,5.17
2017-09-04T03:57:23.204Z,5.00
2017-09-04T03:59:50.999Z,6.57
2017-09-04T04:02:19.511Z,8.33
2017-09-04T04:04:47.581Z,7.77
2017-09-04T04:07:15.270Z,6.53
2017-09-04T04:09:48.484Z,5.57
2017-09-04T04:12:33.641Z,5.20
2017-09-04T04:15:17.400Z,6.97
2017-09-04T04:18:06.030Z,7.20
2017-09-04T04:20:40.468Z,4.57
2017-09-04T04:23:08.063Z,4.83
2017-09-04T04:25:37.136Z,8.50
2017-09-04T04:28:10.990Z,5.73
2017-09-04T04:30:47.289Z,6.77
2017-09-04T04:33:15.013Z,8.63
2017-09-04T04:35:42.621Z,11.03
2017-09-04T04:38:10.271Z,7.90
2017-09-04T04:40:48.800Z,4.20
2017-09-04T04:43:17.228Z,13.70
2017-09-04T04:45:44.803Z,4.47
2017-09-04T04:48:12.646Z,6.87
2017-09-04T04:50:40.183Z,4.23
2017-09-04T04:53:08.014Z,7.10
2017-09-04T04:55:36.057Z,5.27
2017-09-04T04:58:03.635Z,4.43
2017-09-04T05:00:31.203Z,3.80
2017-09-04T05:02:58.727Z,4.30
2017-09-04T05:05:26.255Z,5.80
2017-09-04T05:07:53.875Z,4.37
2017-09-04T05:10:21.392Z,4.83
2017-09-04T05:12:48.907Z,5.30
2017-09-04T05:15:16.446Z,4.20
2017-09-04T05:17:43.989Z,3.70
2017-09-04T05:20:11.516Z,3.80
2017-09-04T05:22:39.059Z,3.67
2017-09-04T05:25:06.569Z,6.07
2017-09-04T05:27:34.162Z,3.40
2017-09-04T05:30:01.956Z,4.33
2017-09-04T05:32:29.494Z,4.77
2017-09-04T05:34:57.002Z,3.57
2017-09-04T05:37:24.516Z,6.97
2017-09-04T05:39:52.060Z,6.63
2017-09-04T05:42:19.593Z,5.23
2017-09-04T05:44:47.128Z,5.50
2017-09-04T05:47:14.663Z,3.70
2017-09-04T05:49:42.204Z,4.00
2017-09-04T05:52:09.705Z,5.27
2017-09-04T05:54:37.276Z,9.93
2017-09-04T05:57:04.837Z,3.03
2017-09-04T05:59:32.724Z,3.80
2017-09-04T06:02:00.308Z,3.47
2017-09-04T06:04:27.840Z,3.27
2017-09-04T06:06:55.560Z,3.33
2017-09-04T06:09:23.214Z,5.10
2017-09-04T06:11:50.746Z,4.23
2017-09-04T06:14:18.373Z,3.00
2017-09-04T06:16:46.029Z,3.30
2017-09-04T06:19:13.561Z,3.93
2017-09-04T06:21:41.376Z,3.03
2017-09-04T06:24:09.163Z,2.90
2017-09-04T06:26:36.700Z,3.50
2017-09-04T06:29:04.255Z,4.20
2017-09-04T06:31:31.819Z,3.63
2017-09-04T06:33:59.400Z,2.60
2017-09-04T06:36:26.952Z,3.00
2017-09-04T06:38:54.530Z,2.67
2017-09-04T06:41:22.273Z,4.10
2017-09-04T06:43:49.826Z,4.10
2017-09-04T06:46:17.405Z,3.27
2017-09-04T06:48:44.937Z,3.13
2017-09-04T06:51:12.479Z,3.83
2017-09-04T06:53:40.072Z,5.17
2017-09-04T06:56:07.646Z,3.50
2017-09-04T06:58:35.403Z,3.00
2017-09-04T07:01:02.985Z,4.27
2017-09-04T07:03:30.750Z,3.73
2017-09-04T07:05:58.355Z,8.13
2017-09-04T07:08:25.955Z,5.63
2017-09-04T07:10:53.516Z,4.10
2017-09-04T07:13:21.275Z,5.10
2017-09-04T07:15:48.866Z,3.80
2017-09-04T07:18:16.416Z,3.70
2017-09-04T07:20:43.971Z,8.20
2017-09-04T07:23:12.495Z,5.37
2017-09-04T07:25:40.246Z,6.20
2017-09-04T07:28:08.080Z,5.50
2017-09-04T07:30:35.765Z,4.03
2017-09-04T07:33:03.336Z,5.07
2017-09-04T07:35:30.899Z,7.90
2017-09-04T07:37:58.499Z,3.93
2017-09-04T07:40:26.076Z,7.37
2017-09-04T07:42:53.597Z,7.93
2017-09-04T07:45:21.181Z,4.40
2017-09-04T07:47:48.909Z,5.50
2017-09-04T07:50:20.069Z,4.87
2017-09-04T07:52:47.637Z,2.90
2017-09-04T07:55:15.229Z,2.77
2017-09-04T07:57:42.766Z,9.20
2017-09-04T08:00:10.387Z,3.37
2017-09-04T08:02:37.961Z,3.37
2017-09-04T08:05:05.516Z,3.00
2017-09-04T08:07:33.152Z,3.23
2017-09-04T08:10:00.732Z,3.07
2017-09-04T08:12:28.249Z,2.23
2017-09-04T08:14:55.820Z,5.30
2017-09-04T08:17:23.390Z,2.27
2017-09-04T08:19:50.916Z,2.70
2017-09-04T08:22:18.953Z,2.83
2017-09-04T08:24:46.516Z,4.70
2017-09-04T08:27:14.077Z,2.83
2017-09-04T08:29:41.613Z,7.77
2017-09-04T08:32:09.181Z,5.70
2017-09-04T08:34:36.913Z,5.20
2017-09-04T08:37:04.436Z,3.40
2017-09-04T08:39:32.028Z,3.03
2017-09-04T08:41:59.619Z,3.07
2017-09-04T08:44:27.399Z,5.80
2017-09-04T08:46:55.002Z,10.80
2017-09-04T08:49:22.763Z,7.23
2017-09-04T08:51:50.317Z,5.67
2017-09-04T08:54:17.907Z,3.37
2017-09-04T08:56:45.515Z,2.63
2017-09-04T08:59:13.081Z,4.03
2017-09-04T09:01:40.677Z,3.93
2017-09-04T09:04:08.423Z,3.13
2017-09-04T09:06:35.972Z,2.83
2017-09-04T09:09:03.588Z,5.07
2017-09-04T09:11:31.158Z,3.33
2017-09-04T09:13:58.705Z,3.13
2017-09-04T09:16:26.643Z,2.33
2017-09-04T09:18:54.173Z,3.13
2017-09-04T09:21:21.743Z,2.90
2017-09-04T09:23:49.375Z,3.57
2017-09-04T09:26:16.996Z,4.23
2017-09-04T09:28:44.546Z,2.53
2017-09-04T09:31:12.197Z,2.83
2017-09-04T09:33:39.952Z,2.87
2017-09-04T09:36:07.494Z,3.03
2017-09-04T09:38:35.088Z,3.00
2017-09-04T09:41:02.645Z,2.43
2017-09-04T09:43:30.251Z,5.20
2017-09-04T09:45:57.847Z,2.27
2017-09-04T09:48:25.414Z,5.90
2017-09-04T09:50:53.025Z,2.70
2017-09-04T09:53:20.589Z,3.10
2017-09-04T09:55:48.369Z,8.53
2017-09-04T09:58:15.993Z,4.90
2017-09-04T10:00:43.659Z,2.93
2017-09-04T10:03:11.233Z,3.80
2017-09-04T10:05:38.787Z,6.47
2017-09-04T10:08:06.393Z,3.87
2017-09-04T10:10:34.242Z,4.97
2017-09-04T10:13:01.943Z,2.80
2017-09-04T10:15:29.597Z,9.00
2017-09-04T10:17:57.250Z,3.87
2017-09-04T10:20:25.141Z,3.63
2017-09-04T10:22:52.756Z,2.80
2017-09-04T10:25:21.184Z,3.37
2017-09-04T10:27:48.758Z,2.73
2017-09-04T10:30:16.659Z,3.00
2017-09-04T10:32:44.254Z,6.33
2017-09-04T10:35:11.844Z,3.10
2017-09-04T10:37:39.451Z,3.50
2017-09-04T10:40:07.068Z,4.53
2017-09-04T10:42:34.628Z,3.13
2017-09-04T10:45:02.268Z,3.33
2017-09-04T10:47:29.839Z,5.37
2017-09-04T10:49:57.445Z,3.40
2017-09-04T10:52:25.054Z,2.97
2017-09-04T10:54:52.604Z,2.40
2017-09-04T10:57:20.665Z,3.20
2017-09-04T10:59:48.264Z,2.80
2017-09-04T11:02:15.838Z,3.43
2017-09-04T11:04:43.409Z,3.50
2017-09-04T11:07:11.002Z,7.23
2017-09-04T11:09:38.573Z,4.00
2017-09-04T11:12:06.171Z,6.40
2017-09-04T11:14:33.753Z,3.70
2017-09-04T11:17:01.416Z,5.63
2017-09-04T11:19:28.983Z,3.80
2017-09-04T11:21:56.581Z,3.93
2017-09-04T11:24:24.186Z,4.13
2017-09-04T11:26:51.782Z,3.43
2017-09-04T11:29:19.630Z,4.90
2017-09-04T11:31:47.216Z,3.60
2017-09-04T11:34:14.773Z,3.47
2017-09-04T11:36:42.379Z,3.87
2017-09-04T11:39:09.957Z,5.10
2017-09-04T11:41:37.580Z,3.53
2017-09-04T11:44:05.185Z,7.87
2017-09-04T11:46:32.768Z,3.00
2017-09-04T11:49:00.315Z,3.47
2017-09-04T11:51:27.902Z,3.60
2017-09-04T11:53:55.489Z,3.10
2017-09-04T11:56:23.078Z,4.53
2017-09-04T11:58:50.848Z,3.83
2017-09-04T12:01:18.463Z,3.80
2017-09-04T12:03:46.091Z,4.10
2017-09-04T12:06:13.761Z,4.50
2017-09-04T12:08:41.347Z,3.30
2017-09-04T12:11:08.951Z,4.13
2017-09-04T12:13:36.505Z,3.80
2017-09-04T12:16:04.101Z,4.60
2017-09-04T12:18:31.883Z,2.60
2017-09-04T12:20:59.601Z,3.30
2017-09-04T12:23:27.255Z,3.13
2017-09-04T12:25:54.817Z,2.77
2017-09-04T12:28:22.402Z,2.60
2017-09-04T12:30:50.009Z,2.93
2017-09-04T12:33:17.580Z,2.40
2017-09-04T12:35:45.179Z,3.70
2017-09-04T12:38:12.790Z,2.57
2017-09-04T12:40:40.421Z,5.00
2017-09-04T12:43:08.025Z,3.47
2017-09-04T12:45:35.577Z,2.83
2017-09-04T12:48:03.096Z,3.87
2017-09-04T12:50:30.632Z,2.50
2017-09-04T12:52:58.212Z,2.70
2017-09-04T12:55:26.075Z,2.40
2017-09-04T12:57:53.647Z,4.20
2017-09-04T13:00:21.401Z,6.10
2017-09-04T13:02:49.160Z,3.70
2017-09-04T13:05:16.736Z,4.17
2017-09-04T13:07:44.364Z,2.60
2017-09-04T13:10:17.591Z,4.70
2017-09-04T13:12:45.173Z,2.97
2017-09-04T13:18:17.864Z,2.50
2017-09-04T13:20:50.961Z,4.87
2017-09-04T13:23:21.072Z,2.80
2017-09-04T13:26:00.134Z,3.37
2017-09-04T13:28:33.148Z,2.40
2017-09-04T13:31:06.231Z,2.50
2017-09-04T13:33:39.375Z,2.10
2017-09-04T13:36:13.442Z,3.63
2017-09-04T13:41:49.533Z,2.47
2017-09-04T13:44:22.569Z,2.43
2017-09-04T13:46:55.955Z,2.30
2017-09-04T13:49:29.471Z,2.33
2017-09-04T13:52:02.958Z,1.90
2017-09-04T13:57:35.256Z,2.60
2017-09-04T14:00:06.749Z,2.00
2017-09-04T14:02:38.824Z,3.37
2017-09-04T14:08:27.447Z,3.23
2017-09-04T14:14:04.131Z,2.03
2017-09-04T14:16:37.259Z,4.90
2017-09-04T14:19:04.800Z,2.60
2017-09-04T14:21:33.272Z,10.53
2017-09-04T14:24:00.864Z,2.40
2017-09-04T14:26:28.475Z,3.13
2017-09-04T14:28:56.064Z,3.30
2017-09-04T14:31:23.725Z,6.77
2017-09-04T14:33:51.485Z,5.00
2017-09-04T14:36:20.621Z,2.80
2017-09-04T14:38:48.882Z,5.33
2017-09-04T14:41:17.431Z,2.17
2017-09-04T14:46:54.357Z,3.00
2017-09-04T14:49:22.006Z,3.67
2017-09-04T14:51:49.619Z,4.43
2017-09-04T14:54:17.428Z,3.10
2017-09-04T14:56:45.011Z,4.20
2017-09-04T14:59:12.593Z,2.23
2017-09-04T15:01:40.215Z,2.93
2017-09-04T15:04:07.768Z,2.83
2017-09-04T15:06:35.377Z,2.63
2017-09-04T15:09:03.047Z,3.20
2017-09-04T15:11:30.587Z,3.33
2017-09-04T15:13:58.183Z,2.40
2017-09-04T15:16:25.924Z,3.73
2017-09-04T15:18:53.694Z,3.13
2017-09-04T15:21:21.299Z,2.73
2017-09-04T15:23:48.942Z,5.70
2017-09-04T15:26:16.538Z,2.50
2017-09-04T15:28:44.138Z,5.17
2017-09-04T15:31:11.735Z,2.57
2017-09-04T15:33:39.724Z,2.00
2017-09-04T15:36:07.283Z,5.30
2017-09-04T15:38:34.871Z,9.87
2017-09-04T15:41:02.516Z,4.20
2017-09-04T15:43:30.103Z,4.17
2017-09-04T15:45:57.706Z,3.97
2017-09-04T15:48:25.265Z,2.70
2017-09-04T15:50:52.825Z,2.97
2017-09-04T15:53:20.491Z,2.10
2017-09-04T15:55:48.151Z,5.23
2017-09-04T15:58:15.729Z,2.00
2017-09-04T16:00:43.367Z,5.87
2017-09-04T16:03:11.145Z,2.47
2017-09-04T16:05:38.932Z,5.40
2017-09-04T16:08:06.568Z,2.20
2017-09-04T16:10:34.216Z,3.47
2017-09-04T16:13:16.953Z,2.33
2017-09-04T16:15:44.554Z,3.10
2017-09-04T16:18:17.549Z,2.23
2017-09-04T16:23:49.978Z,3.00
2017-09-04T16:26:18.417Z,3.40
2017-09-04T16:28:49.482Z,2.63
2017-09-04T16:31:18.980Z,2.80
2017-09-04T16:33:52.878Z,9.90
2017-09-04T16:39:31.108Z,6.77
2017-09-04T16:42:02.712Z,3.20
2017-09-04T16:44:31.983Z,4.80
2017-09-04T16:50:08.746Z,3.40
2017-09-04T16:52:49.169Z,3.87
2017-09-04T16:58:22.212Z,3.20
2017-09-04T17:00:49.981Z,5.93
2017-09-04T17:03:17.572Z,4.50
2017-09-04T17:05:45.297Z,3.37
2017-09-04T17:08:14.592Z,3.60
2017-09-04T17:10:44.252Z,4.60
2017-09-04T17:13:11.830Z,3.53
2017-09-04T17:15:54.027Z,5.53
2017-09-04T17:21:35.903Z,4.23
2017-09-04T17:24:06.312Z,5.10
2017-09-04T17:26:35.588Z,4.53
2017-09-04T17:29:04.914Z,8.80
2017-09-04T17:31:32.549Z,6.20
2017-09-04T17:34:00.081Z,7.60
2017-09-04T17:36:27.635Z,11.13
2017-09-04T17:38:55.480Z,11.80
2017-09-04T17:41:23.090Z,12.80
2017-09-04T17:43:50.652Z,8.80
2017-09-04T17:46:19.357Z,32.20
2017-09-04T17:48:47.789Z,91.27
2017-09-04T17:51:15.569Z,56.43
2017-09-04T17:53:43.293Z,14.40
2017-09-04T17:56:12.518Z,6.00
2017-09-04T17:58:41.998Z,6.03
2017-09-04T18:01:10.746Z,5.07
2017-09-04T18:03:38.559Z,7.27
2017-09-04T18:06:06.128Z,5.23
2017-09-04T18:08:33.730Z,6.37
2017-09-04T18:11:01.345Z,10.40
2017-09-04T18:13:28.893Z,12.23
2017-09-04T18:15:56.512Z,15.27
2017-09-04T18:18:25.823Z,8.37
2017-09-04T18:20:53.456Z,9.10
2017-09-04T18:23:22.145Z,9.07
2017-09-04T18:25:49.721Z,9.07
2017-09-04T18:28:17.328Z,11.63
2017-09-04T18:30:44.928Z,8.33
2017-09-04T18:33:12.593Z,8.03
2017-09-04T18:35:40.312Z,10.73
2017-09-04T18:38:07.912Z,12.90
2017-09-04T18:40:35.739Z,8.10
2017-09-04T18:43:03.342Z,11.10
2017-09-04T18:45:31.040Z,10.47
2017-09-04T18:47:59.539Z,8.50
2017-09-04T18:50:27.120Z,8.20
2017-09-04T18:52:55.139Z,7.03
2017-09-04T18:55:22.953Z,9.40
2017-09-04T18:57:50.537Z,7.87
2017-09-04T19:00:18.247Z,9.00
2017-09-04T19:02:46.040Z,11.03
2017-09-04T19:05:13.655Z,6.67
2017-09-04T19:07:41.231Z,6.30
2017-09-04T19:10:09.428Z,7.20
2017-09-04T19:12:36.985Z,9.27
2017-09-04T19:15:04.575Z,11.23
2017-09-04T19:17:32.212Z,8.33
2017-09-04T19:19:59.790Z,8.33
2017-09-04T19:22:28.231Z,8.97
2017-09-04T19:24:56.787Z,11.00
2017-09-04T19:27:24.542Z,7.40
2017-09-04T19:29:52.156Z,10.83
2017-09-04T19:32:19.752Z,11.07
2017-09-04T19:34:47.385Z,11.20
2017-09-04T19:37:14.962Z,6.60
2017-09-04T19:39:42.642Z,14.13
2017-09-04T19:42:10.184Z,12.13
2017-09-04T19:44:37.750Z,13.80
2017-09-04T19:47:05.404Z,11.23
2017-09-04T19:49:32.986Z,13.60
2017-09-04T19:52:00.571Z,15.53
2017-09-04T19:54:28.638Z,10.77
2017-09-04T19:56:56.294Z,18.57
2017-09-04T19:59:23.840Z,11.50
2017-09-04T20:01:51.872Z,18.43
2017-09-04T20:04:20.438Z,16.00
2017-09-04T20:06:48.114Z,15.23
2017-09-04T20:09:15.833Z,18.63
2017-09-04T20:11:43.395Z,17.10
2017-09-04T20:14:11.216Z,16.30
2017-09-04T20:16:38.893Z,16.80
2017-09-04T20:19:06.498Z,14.23
2017-09-04T20:21:34.111Z,13.00
2017-09-04T20:24:01.772Z,12.93
2017-09-04T20:26:31.262Z,10.37
2017-09-04T20:29:00.375Z,13.57
2017-09-04T20:31:29.214Z,12.23
2017-09-04T20:33:58.302Z,13.23
2017-09-04T20:36:27.197Z,9.13
2017-09-04T20:38:56.076Z,10.80
2017-09-04T20:41:24.671Z,8.87
2017-09-04T20:43:52.230Z,9.10
2017-09-04T20:46:19.858Z,13.67
2017-09-04T20:48:47.460Z,11.33
2017-09-04T20:51:15.865Z,11.77
2017-09-04T20:53:43.437Z,8.10
2017-09-04T20:56:10.992Z,13.67
2017-09-04T20:58:38.606Z,13.53
2017-09-04T21:01:06.221Z,16.93
2017-09-04T21:03:33.874Z,14.33
2017-09-04T21:06:01.482Z,13.97
2017-09-04T21:08:29.059Z,13.57
2017-09-04T21:10:56.659Z,9.80
2017-09-04T21:13:24.293Z,12.10
2017-09-04T21:15:51.914Z,9.67
2017-09-04T21:18:19.548Z,10.33
2017-09-04T21:20:47.164Z,11.23
2017-09-04T21:23:14.758Z,10.03
2017-09-04T21:25:42.360Z,9.97
2017-09-04T21:28:09.983Z,14.17
2017-09-04T21:30:37.581Z,9.43
2017-09-04T21:33:05.154Z,9.60
2017-09-04T21:35:32.689Z,7.90
2017-09-04T21:38:00.502Z,8.97
2017-09-04T21:40:28.187Z,7.93
2017-09-04T21:42:55.757Z,11.10
2017-09-04T21:45:23.333Z,9.47
2017-09-04T21:47:50.863Z,8.30
2017-09-04T21:50:18.366Z,7.70
2017-09-04T21:52:45.936Z,6.57
2017-09-04T21:55:13.475Z,8.33
2017-09-04T21:57:41.052Z,6.30
2017-09-04T22:00:08.704Z,5.60
2017-09-04T22:02:36.215Z,7.43
2017-09-04T22:05:03.795Z,6.40
2017-09-04T22:07:31.346Z,5.43
2017-09-04T22:09:58.853Z,5.30
2017-09-04T22:12:26.389Z,5.57
2017-09-04T22:14:54.169Z,5.50
2017-09-04T22:17:21.733Z,9.00
2017-09-04T22:19:49.314Z,7.50
2017-09-04T22:22:16.885Z,7.20
2017-09-04T22:24:44.460Z,8.87
2017-09-04T22:27:12.013Z,7.60
2017-09-04T22:29:39.878Z,9.57
2017-09-04T22:32:07.624Z,5.60
2017-09-04T22:34:35.303Z,6.73
2017-09-04T22:37:02.865Z,7.50
2017-09-04T22:39:30.471Z,6.77
2017-09-04T22:41:58.086Z,6.77
2017-09-04T22:44:25.683Z,9.77
2017-09-04T22:46:53.256Z,7.87
2017-09-04T22:49:20.800Z,10.20
2017-09-04T22:51:48.406Z,6.93
2017-09-04T22:54:15.994Z,8.77
2017-09-04T22:56:43.633Z,7.07
2017-09-04T22:59:11.250Z,6.37
2017-09-04T23:01:38.835Z,5.83
2017-09-04T23:04:06.423Z,5.63
2017-09-04T23:06:33.994Z,6.50
2017-09-04T23:09:01.622Z,6.03
2017-09-04T23:11:29.206Z,4.47
2017-09-04T23:13:56.769Z,5.10
2017-09-04T23:16:24.325Z,5.30
2017-09-04T23:18:51.876Z,5.03
2017-09-04T23:21:19.447Z,6.17
2017-09-04T23:23:47.019Z,6.63
2017-09-04T23:26:14.572Z,4.80
2017-09-04T23:28:42.131Z,5.90
2017-09-04T23:31:09.743Z,6.50
2017-09-04T23:33:37.301Z,5.53
2017-09-04T23:36:04.909Z,5.63
2017-09-04T23:38:32.505Z,7.63
2017-09-04T23:41:00.026Z,5.10
2017-09-04T23:43:27.565Z,6.63
2017-09-04T23:45:55.152Z,7.20
2017-09-04T23:48:22.897Z,7.73
2017-09-04T23:50:50.425Z,7.00
2017-09-04T23:53:18.001Z,6.73
2017-09-04T23:55:45.613Z,5.57
2017-09-04T23:58:13.171Z,5.17
